createdAt,value
2023-05-26T00:01:02.160Z,99553.06
2023-05-26T00:04:04.572Z,99547.78
2023-05-26T00:07:06.905Z,99555.91
2023-05-26T00:10:09.339Z,99558.59
2023-05-26T00:13:11.548Z,99558.75
2023-05-26T00:16:14.837Z,99554.38
2023-05-26T00:19:19.004Z,99568.56
2023-05-26T00:22:21.345Z,99563.25
2023-05-26T00:25:23.860Z,99564.16
2023-05-26T00:28:25.960Z,99561.59
2023-05-26T00:31:30.709Z,99569.69
2023-05-26T00:34:34.853Z,99565.34
2023-05-26T00:37:37.213Z,99569.88
2023-05-26T00:40:39.546Z,99564.59
2023-05-26T00:43:41.938Z,99565.47
2023-05-26T00:46:45.816Z,99569.03
2023-05-26T00:49:50.826Z,99563.53
2023-05-26T00:52:52.990Z,99560.81
2023-05-26T00:55:55.798Z,99561.75
2023-05-26T00:58:58.504Z,99564.56
2023-05-26T01:02:02.331Z,99563.75
2023-05-26T01:05:06.280Z,99561.13
2023-05-26T01:08:08.229Z,99559.50
2023-05-26T01:11:15.469Z,99559.50
2023-05-26T01:14:21.327Z,99564.94
2023-05-26T01:17:28.102Z,99571.19
2023-05-26T01:20:32.191Z,99560.50
2023-05-26T01:23:42.970Z,99568.47
2023-05-26T01:27:01.725Z,99559.66
2023-05-26T01:30:07.572Z,99555.28
2023-05-26T01:33:10.006Z,99558.09
2023-05-26T01:36:12.233Z,99562.56
2023-05-26T01:39:14.329Z,99565.19
2023-05-26T01:42:30.589Z,99566.97
2023-05-26T01:45:43.380Z,99560.78
2023-05-26T01:48:47.332Z,99559.94
2023-05-26T01:51:51.606Z,99560.94
2023-05-26T01:54:58.373Z,99568.13
2023-05-26T01:58:01.272Z,99558.50
2023-05-26T02:01:08.376Z,99563.84
2023-05-26T02:04:13.033Z,99553.34
2023-05-26T02:07:16.722Z,99550.72
2023-05-26T02:10:18.706Z,99565.81
2023-05-26T02:13:21.320Z,99562.31
2023-05-26T02:16:25.921Z,99560.63
2023-05-26T02:19:27.908Z,99572.19
2023-05-26T02:22:29.995Z,99563.38
2023-05-26T02:25:32.322Z,99566.03
2023-05-26T02:28:34.188Z,99569.53
2023-05-26T02:31:42.430Z,99573.97
2023-05-26T02:34:45.703Z,99572.19
2023-05-26T02:37:48.687Z,99572.19
2023-05-26T02:40:51.068Z,99576.59
2023-05-26T02:43:53.100Z,99575.72
2023-05-26T02:47:00.949Z,99566.00
2023-05-26T02:50:03.113Z,99570.47
2023-05-26T02:53:07.979Z,99573.03
2023-05-26T02:56:10.167Z,99573.97
2023-05-26T02:59:13.231Z,99582.84
2023-05-26T03:02:17.278Z,99579.38
2023-05-26T03:05:19.530Z,99583.88
2023-05-26T03:08:21.537Z,99586.50
2023-05-26T03:11:23.544Z,99585.63
2023-05-26T03:14:26.508Z,99587.50
2023-05-26T03:17:29.922Z,99583.09
2023-05-26T03:20:32.240Z,99578.69
2023-05-26T03:23:37.047Z,99584.06
2023-05-26T03:26:40.314Z,99578.81
2023-05-26T03:29:42.652Z,99570.97
2023-05-26T03:32:48.780Z,99581.66
2023-05-26T03:35:51.690Z,99580.81
2023-05-26T03:38:55.511Z,99596.72
2023-05-26T03:42:01.105Z,99587.88
2023-05-26T03:45:06.061Z,99594.00
2023-05-26T03:48:13.821Z,99595.75
2023-05-26T03:51:16.583Z,99592.25
2023-05-26T03:54:18.804Z,99601.97
2023-05-26T03:57:21.072Z,99601.06
2023-05-26T04:00:24.036Z,99603.75
2023-05-26T04:03:28.090Z,99596.66
2023-05-26T04:06:30.250Z,99600.22
2023-05-26T04:09:32.746Z,99602.91
2023-05-26T04:12:35.076Z,99600.19
2023-05-26T04:15:37.136Z,99603.72
2023-05-26T04:18:42.920Z,99607.25
2023-05-26T04:21:44.939Z,99619.53
2023-05-26T04:24:47.696Z,99629.25
2023-05-26T04:27:57.695Z,99625.75
2023-05-26T04:31:06.119Z,99623.88
2023-05-26T04:34:30.037Z,99625.66
2023-05-26T04:37:39.892Z,99629.06
2023-05-26T04:40:44.222Z,99624.66
2023-05-26T04:43:46.490Z,99622.91
2023-05-26T04:46:49.548Z,99630.84
2023-05-26T04:49:53.194Z,99635.31
2023-05-26T04:52:55.307Z,99638.69
2023-05-26T04:56:03.550Z,99634.22
2023-05-26T04:59:07.549Z,99632.34
2023-05-26T05:02:10.234Z,99637.50
2023-05-26T05:05:29.422Z,99634.78
2023-05-26T05:08:32.085Z,99632.91
2023-05-26T05:11:34.885Z,99639.25
2023-05-26T05:14:36.972Z,99633.94
2023-05-26T05:17:43.966Z,99641.78
2023-05-26T05:20:48.552Z,99637.28
2023-05-26T05:23:51.076Z,99651.41
2023-05-26T05:26:53.137Z,99645.94
2023-05-26T05:29:58.806Z,99644.19
2023-05-26T05:33:03.321Z,99648.66
2023-05-26T05:36:07.525Z,99657.41
2023-05-26T05:39:10.024Z,99649.44
2023-05-26T05:42:12.152Z,99657.28
2023-05-26T05:45:14.789Z,99657.13
2023-05-26T05:48:53.293Z,99666.13
2023-05-26T05:52:06.327Z,99670.41
2023-05-26T05:55:08.736Z,99670.38
2023-05-26T05:58:12.218Z,99673.06
2023-05-26T06:01:14.455Z,99673.63
2023-05-26T06:04:16.521Z,99676.09
2023-05-26T06:07:20.740Z,99676.56
2023-05-26T06:10:22.817Z,99680.63
2023-05-26T06:13:26.093Z,99682.25
2023-05-26T06:16:28.768Z,99682.25
2023-05-26T06:19:30.961Z,99690.03
2023-05-26T06:22:37.632Z,99686.41
2023-05-26T06:25:40.656Z,99685.41
2023-05-26T06:28:42.854Z,99684.47
2023-05-26T06:31:45.115Z,99688.63
2023-05-26T06:34:53.794Z,99687.69
2023-05-26T06:37:59.561Z,99697.66
2023-05-26T06:41:03.463Z,99704.06
2023-05-26T06:44:08.530Z,99704.56
2023-05-26T06:47:11.110Z,99700.84
2023-05-26T06:50:18.510Z,99699.53
2023-05-26T06:53:23.281Z,99701.91
2023-05-26T06:56:27.438Z,99708.84
2023-05-26T06:59:29.818Z,99703.94
2023-05-26T07:02:33.070Z,99707.25
2023-05-26T07:05:57.705Z,99707.91
2023-05-26T07:09:03.408Z,99717.59
2023-05-26T07:12:11.468Z,99719.22
2023-05-26T07:15:22.553Z,99715.41
2023-05-26T07:18:24.781Z,99719.78
2023-05-26T07:21:28.969Z,99715.31
2023-05-26T07:24:34.171Z,99728.81
2023-05-26T07:27:36.593Z,99724.75
2023-05-26T07:30:38.614Z,99723.75
2023-05-26T07:33:43.453Z,99726.44
2023-05-26T07:36:46.037Z,99727.47
2023-05-26T07:39:49.637Z,99736.63
2023-05-26T07:42:51.704Z,99726.97
2023-05-26T07:45:55.641Z,99722.22
2023-05-26T07:48:57.827Z,99725.72
2023-05-26T07:51:59.892Z,99729.53
2023-05-26T07:55:04.275Z,99726.06
2023-05-26T07:58:06.751Z,99721.22
2023-05-26T08:01:09.314Z,99725.81
2023-05-26T08:04:15.162Z,99724.44
2023-05-26T08:07:19.429Z,99726.09
2023-05-26T08:10:25.483Z,99715.03
2023-05-26T08:13:28.159Z,99719.84
2023-05-26T08:16:31.166Z,99726.31
2023-05-26T08:19:36.606Z,99726.25
2023-05-26T08:22:45.857Z,99732.97
2023-05-26T08:25:57.012Z,99731.91
2023-05-26T08:28:59.016Z,99740.09
2023-05-26T08:32:01.756Z,99744.16
2023-05-26T08:35:04.786Z,99739.50
2023-05-26T08:38:07.034Z,99733.41
2023-05-26T08:41:11.904Z,99737.44
2023-05-26T08:44:17.975Z,99723.88
2023-05-26T08:47:20.203Z,99729.28
2023-05-26T08:50:22.259Z,99730.50
2023-05-26T08:53:25.538Z,99727.31
2023-05-26T08:56:29.357Z,99727.13
2023-05-26T08:59:32.504Z,99729.81
2023-05-26T09:02:34.768Z,99727.59
2023-05-26T09:05:37.073Z,99719.78
2023-05-26T09:08:41.547Z,99727.94
2023-05-26T09:11:53.871Z,99717.88
2023-05-26T09:14:59.103Z,99718.03
2023-05-26T09:18:04.860Z,99718.38
2023-05-26T09:21:07.075Z,99719.53
2023-05-26T09:24:09.288Z,99716.31
2023-05-26T09:27:21.059Z,99722.75
2023-05-26T09:30:22.987Z,99725.53
2023-05-26T09:33:25.450Z,99727.28
2023-05-26T09:36:27.616Z,99730.97
2023-05-26T09:39:33.087Z,99729.63
2023-05-26T09:42:38.907Z,99735.03
2023-05-26T09:45:46.519Z,99737.13
2023-05-26T09:48:50.746Z,99737.97
2023-05-26T09:52:10.564Z,99731.97
2023-05-26T09:55:14.760Z,99737.72
2023-05-26T09:58:19.510Z,99733.94
2023-05-26T10:01:22.005Z,99730.13
2023-05-26T10:04:24.885Z,99726.66
2023-05-26T10:07:27.586Z,99731.94
2023-05-26T10:10:31.378Z,99729.94
2023-05-26T10:13:35.956Z,99726.06
2023-05-26T10:16:39.216Z,99725.31
2023-05-26T10:19:41.780Z,99723.38
2023-05-26T10:22:48.138Z,99725.06
2023-05-26T10:25:57.644Z,99731.78
2023-05-26T10:29:07.110Z,99724.13
2023-05-26T10:32:29.468Z,99728.41
2023-05-26T10:35:32.434Z,99718.53
2023-05-26T10:38:36.939Z,99725.34
2023-05-26T10:41:39.544Z,99718.09
2023-05-26T10:44:43.296Z,99719.78
2023-05-26T10:47:47.933Z,99707.94
2023-05-26T10:51:10.929Z,99711.38
2023-05-26T10:54:18.871Z,99716.72
2023-05-26T10:57:31.459Z,99713.34
2023-05-26T11:00:36.576Z,99716.25
2023-05-26T11:03:39.579Z,99717.25
2023-05-26T11:06:47.060Z,99724.34
2023-05-26T11:10:01.912Z,99724.25
2023-05-26T11:13:04.440Z,99723.31
2023-05-26T11:16:21.969Z,99717.88
2023-05-26T11:19:31.874Z,99718.50
2023-05-26T11:22:34.571Z,99719.63
2023-05-26T11:25:49.082Z,99720.72
2023-05-26T11:28:52.103Z,99721.13
2023-05-26T11:31:56.901Z,99716.31
2023-05-26T11:34:59.076Z,99718.06
2023-05-26T11:38:01.170Z,99712.81
2023-05-26T11:41:03.783Z,99714.28
2023-05-26T11:44:08.514Z,99714.72
2023-05-26T11:47:15.884Z,99718.41
2023-05-26T11:50:18.560Z,99714.47
2023-05-26T11:53:23.452Z,99725.78
2023-05-26T11:56:32.233Z,99720.50
2023-05-26T11:59:34.470Z,99723.56
2023-05-26T12:02:38.654Z,99716.59
2023-05-26T12:05:41.465Z,99711.78
2023-05-26T12:08:47.483Z,99715.72
2023-05-26T12:11:51.617Z,99715.06
2023-05-26T12:15:03.460Z,99707.84
2023-05-26T12:18:07.059Z,99704.50
2023-05-26T12:21:10.509Z,99696.03
2023-05-26T12:24:12.940Z,99696.28
2023-05-26T12:27:17.639Z,99692.53
2023-05-26T12:30:20.424Z,99709.66
2023-05-26T12:33:24.005Z,99706.47
2023-05-26T12:36:26.179Z,99703.31
2023-05-26T12:39:29.486Z,99701.50
2023-05-26T12:42:34.509Z,99713.91
2023-05-26T12:45:36.956Z,99713.53
2023-05-26T12:48:40.757Z,99708.63
2023-05-26T12:51:43.007Z,99709.59
2023-05-26T12:54:44.983Z,99713.56
2023-05-26T12:57:47.258Z,99710.00
2023-05-26T13:00:49.550Z,99710.09
2023-05-26T13:03:53.282Z,99716.91
2023-05-26T13:06:57.793Z,99708.34
2023-05-26T13:10:00.787Z,99701.16
2023-05-26T13:13:02.842Z,99698.59
2023-05-26T13:16:16.433Z,99705.97
2023-05-26T13:19:28.166Z,99708.88
2023-05-26T13:22:31.268Z,99702.50
2023-05-26T13:25:33.318Z,99698.13
2023-05-26T13:28:36.240Z,99696.06
2023-05-26T13:31:38.713Z,99693.66
2023-05-26T13:34:42.650Z,99694.56
2023-05-26T13:37:44.865Z,99688.59
2023-05-26T13:40:47.532Z,99687.53
2023-05-26T13:43:49.928Z,99690.75
2023-05-26T13:46:51.918Z,99689.81
2023-05-26T13:49:58.827Z,99681.38
2023-05-26T13:53:06.038Z,99691.06
2023-05-26T13:56:24.847Z,99686.91
2023-05-26T13:59:28.409Z,99680.19
2023-05-26T14:02:30.691Z,99681.72
2023-05-26T14:05:34.236Z,99679.47
2023-05-26T14:08:36.488Z,99678.22
2023-05-26T14:11:39.328Z,99679.47
2023-05-26T14:14:43.317Z,99684.34
2023-05-26T14:17:50.376Z,99678.31
2023-05-26T14:21:51.216Z,99678.47
2023-05-26T14:24:19.788Z,99673.59
2023-05-26T14:27:22.349Z,99667.75
2023-05-26T14:30:24.521Z,99669.75
2023-05-26T14:33:26.765Z,99670.84
2023-05-26T14:36:30.380Z,99665.44
2023-05-26T14:39:32.336Z,99660.88
2023-05-26T14:42:34.548Z,99672.03
2023-05-26T14:45:36.684Z,99656.91
2023-05-26T14:48:38.727Z,99667.22
2023-05-26T14:51:42.021Z,99668.78
2023-05-26T14:54:44.126Z,99662.75
2023-05-26T14:57:46.276Z,99668.50
2023-05-26T15:00:49.761Z,99658.59
2023-05-26T15:04:12.910Z,99651.72
2023-05-26T15:07:15.809Z,99661.16
2023-05-26T15:10:27.748Z,99672.97
2023-05-26T15:13:37.819Z,99674.38
2023-05-26T15:16:40.284Z,99665.25
2023-05-26T15:19:42.432Z,99663.09
2023-05-26T15:22:49.377Z,99671.09
2023-05-26T15:25:51.291Z,99668.13
2023-05-26T15:28:53.337Z,99652.47
2023-05-26T15:31:55.467Z,99658.78
2023-05-26T15:35:01.560Z,99656.75
2023-05-26T15:41:29.215Z,99657.91
2023-05-26T15:42:20.116Z,99658.25
2023-05-26T15:44:33.043Z,99658.88
2023-05-26T15:47:35.755Z,99653.69
2023-05-26T15:50:37.796Z,99647.03
2023-05-26T15:53:42.522Z,99642.44
2023-05-26T15:56:46.514Z,99645.00
2023-05-26T15:59:48.558Z,99633.56
2023-05-26T16:02:50.780Z,99638.81
2023-05-26T16:05:52.939Z,99634.84
2023-05-26T16:08:58.669Z,99633.09
2023-05-26T16:12:01.075Z,99646.56
2023-05-26T16:15:03.415Z,99634.72
2023-05-26T16:18:09.807Z,99635.78
2023-05-26T16:21:12.042Z,99627.19
2023-05-26T16:24:15.688Z,99630.31
2023-05-26T16:27:17.882Z,99627.47
2023-05-26T16:30:19.998Z,99631.88
2023-05-26T16:33:22.239Z,99624.25
2023-05-26T16:36:26.353Z,99638.22
2023-05-26T16:39:29.870Z,99633.22
2023-05-26T16:42:32.371Z,99640.13
2023-05-26T16:45:34.423Z,99636.97
2023-05-26T16:48:36.545Z,99632.75
2023-05-26T16:51:39.630Z,99633.03
2023-05-26T16:55:01.833Z,99632.44
2023-05-26T16:58:04.798Z,99633.84
2023-05-26T17:01:07.149Z,99634.00
2023-05-26T17:04:11.622Z,99634.78
2023-05-26T17:07:14.970Z,99628.31
2023-05-26T17:10:19.213Z,99637.31
2023-05-26T17:13:21.666Z,99625.50
2023-05-26T17:16:24.345Z,99637.66
2023-05-26T17:19:26.617Z,99640.50
2023-05-26T17:22:28.739Z,99633.47
2023-05-26T17:25:33.182Z,99636.44
2023-05-26T17:28:37.192Z,99632.25
2023-05-26T17:31:39.402Z,99640.31
2023-05-26T17:34:41.485Z,99650.28
2023-05-26T17:37:43.835Z,99648.81
2023-05-26T17:40:47.949Z,99645.91
2023-05-26T17:43:50.447Z,99647.72
2023-05-26T17:46:52.737Z,99651.78
2023-05-26T17:49:59.982Z,99647.78
2023-05-26T17:53:02.456Z,99648.09
2023-05-26T17:56:06.213Z,99639.56
2023-05-26T17:59:08.614Z,99641.53
2023-05-26T18:02:11.453Z,99640.34
2023-05-26T18:05:14.342Z,99645.78
2023-05-26T18:08:16.430Z,99645.25
2023-05-26T18:11:20.229Z,99651.34
2023-05-26T18:14:22.318Z,99648.25
2023-05-26T18:17:24.717Z,99651.28
2023-05-26T18:20:28.932Z,99660.41
2023-05-26T18:23:32.240Z,99656.84
2023-05-26T18:26:36.404Z,99652.50
2023-05-26T18:29:38.599Z,99652.75
2023-05-26T18:32:40.997Z,99660.34
2023-05-26T18:35:43.741Z,99660.63
2023-05-26T18:38:45.786Z,99657.38
2023-05-26T18:41:49.218Z,99654.91
2023-05-26T18:44:52.023Z,99657.22
2023-05-26T18:47:55.322Z,99652.16
2023-05-26T18:50:57.393Z,99655.16
2023-05-26T18:53:59.682Z,99651.91
2023-05-26T18:57:07.622Z,99659.44
2023-05-26T19:00:10.708Z,99651.75
2023-05-26T19:03:13.026Z,99660.22
2023-05-26T19:06:17.982Z,99664.16
2023-05-26T19:09:19.919Z,99662.72
2023-05-26T19:12:24.030Z,99659.38
2023-05-26T19:15:26.234Z,99665.94
2023-05-26T19:18:28.254Z,99667.16
2023-05-26T19:21:30.817Z,99658.59
2023-05-26T19:24:32.940Z,99671.50
2023-05-26T19:27:36.334Z,99668.22
2023-05-26T19:30:38.391Z,99672.09
2023-05-26T19:33:42.516Z,99677.84
2023-05-26T19:36:44.606Z,99668.28
2023-05-26T19:39:50.038Z,99675.69
2023-05-26T19:42:55.108Z,99669.59
2023-05-26T19:45:57.115Z,99676.25
2023-05-26T19:48:59.760Z,99671.09
2023-05-26T19:52:04.056Z,99673.16
2023-05-26T19:55:06.483Z,99676.06
2023-05-26T19:58:10.094Z,99673.75
2023-05-26T20:01:15.062Z,99678.63
2023-05-26T20:04:18.474Z,99680.59
2023-05-26T20:07:20.721Z,99676.31
2023-05-26T20:10:26.091Z,99681.78
2023-05-26T20:13:29.655Z,99674.78
2023-05-26T20:16:32.602Z,99683.84
2023-05-26T20:19:47.254Z,99682.28
2023-05-26T20:22:58.149Z,99682.44
2023-05-26T20:26:00.652Z,99679.13
2023-05-26T20:29:04.344Z,99678.38
2023-05-26T20:32:06.739Z,99687.44
2023-05-26T20:35:09.550Z,99677.81
2023-05-26T20:38:11.798Z,99681.56
2023-05-26T20:41:13.823Z,99676.41
2023-05-26T20:44:22.263Z,99676.56
2023-05-26T20:47:24.534Z,99682.78
2023-05-26T20:50:27.281Z,99677.69
2023-05-26T20:53:29.429Z,99688.44
2023-05-26T20:56:31.905Z,99688.41
2023-05-26T20:59:41.635Z,99689.41
2023-05-26T21:02:45.809Z,99693.06
2023-05-26T21:05:50.765Z,99701.19
2023-05-26T21:08:53.634Z,99693.97
2023-05-26T21:11:56.782Z,99698.28
2023-05-26T21:15:00.684Z,99693.16
2023-05-26T21:18:02.987Z,99693.34
2023-05-26T21:21:05.324Z,99693.41
2023-05-26T21:24:07.911Z,99691.63
2023-05-26T21:27:10.292Z,99704.19
2023-05-26T21:30:25.761Z,99692.13
2023-05-26T21:33:33.793Z,99688.81
2023-05-26T21:36:36.819Z,99698.63
2023-05-26T21:39:41.866Z,99704.97
2023-05-26T21:42:44.346Z,99704.97
2023-05-26T21:45:53.268Z,99707.72
2023-05-26T21:48:56.548Z,99701.72
2023-05-26T21:52:01.594Z,99698.22
2023-05-26T21:55:06.451Z,99698.34
2023-05-26T21:58:12.403Z,99701.22
2023-05-26T22:01:16.901Z,99693.34
2023-05-26T22:04:19.851Z,99696.09
2023-05-26T22:07:21.952Z,99692.56
2023-05-26T22:10:24.216Z,99691.66
2023-05-26T22:13:26.481Z,99688.97
2023-05-26T22:16:30.034Z,99698.78
2023-05-26T22:19:32.634Z,99703.28
2023-05-26T22:22:35.439Z,99698.75
2023-05-26T22:25:37.515Z,99703.28
2023-05-26T22:28:39.617Z,99703.38
2023-05-26T22:31:44.822Z,99701.66
2023-05-26T22:34:46.916Z,99702.56
2023-05-26T22:37:49.317Z,99698.13
2023-05-26T22:40:51.499Z,99701.78
2023-05-26T22:43:56.613Z,99693.88
2023-05-26T22:47:00.942Z,99697.56
2023-05-26T22:50:03.672Z,99695.09
2023-05-26T22:53:06.074Z,99688.16
2023-05-26T22:56:13.992Z,99688.28
2023-05-26T22:59:16.927Z,99687.50
2023-05-26T23:02:20.532Z,99688.34
2023-05-26T23:05:22.741Z,99686.66
2023-05-26T23:08:30.399Z,99689.47
2023-05-26T23:11:34.838Z,99687.69
2023-05-26T23:14:37.123Z,99689.47
2023-05-26T23:17:40.690Z,99692.88
2023-05-26T23:20:43.016Z,99697.44
2023-05-26T23:23:47.105Z,99690.34
2023-05-26T23:26:53.368Z,99696.63
2023-05-26T23:29:55.708Z,99697.63
2023-05-26T23:32:59.387Z,99702.09
2023-05-26T23:36:01.173Z,99696.88
2023-05-26T23:39:03.922Z,99696.16
2023-05-26T23:42:06.521Z,99690.06
2023-05-26T23:45:08.921Z,99697.22
2023-05-26T23:48:13.369Z,99695.34
2023-05-26T23:51:15.869Z,99698.09
2023-05-26T23:54:17.878Z,99689.28
2023-05-26T23:57:20.010Z,99696.50
